Flight Track Log - Related Links

Times and Time Zones

All times are in EDT time to prevent confusion due to time zone crossing. See the N85JE flight status page for this flight to view local times or setup timezone preferences in your user account.

Time Position Orientation Groundspeed Altitude Reporting Facility
EDT Latitude Longitude Course Direction KTS MPH feet Rate Location/Type
Sun 11:23:44 AM 26.0928 -81.8044 110° East 227 261 3,500  Level Miami Center
Sun 11:24:44 AM 26.0575 -81.7339 119° Southeast 260 299 4,300 2,300 Climbing Miami Center
Sun 11:25:44 AM 26.0222 -81.6700 122° Southeast 276 318 8,100 2,350 Climbing Miami Center
Sun 11:26:44 AM 26.0042 -81.5814 103° East 284 327 9,000 450 Climbing Miami Center
Sun 11:27:44 AM 25.9942 -81.5047 98° East 282 325 9,000  Level Miami Center
Sun 11:28:44 AM 25.9886 -81.4144 94° East 282 325 9,000  Level Miami Center
Sun 11:29:00 AM 26.0917 -81.3951 110° East  Level Estimated
Sun 11:29:44 AM 25.9850 -81.3289 93° East 277 319 9,000  Level Miami Center
Sun 11:30:38 AM 25.9772 -81.2408 96° East 295 339 9,000  Level Miami Center
Sun 11:30:44 AM 25.9814 -81.2386 26° Northeast 282 325 9,000  Level Miami Center
Sun 11:31:21 AM 25.9769 -81.1736 94° East 292 336 9,000  Level Miami Center
Sun 11:31:44 AM 25.9800 -81.1483 82° East 288 331 9,000  Level Miami Center
Sun 11:32:22 AM 25.9714 -81.0811 98° East 294 338 9,000  Level Miami Center
Sun 11:32:44 AM 25.9744 -81.0489 84° East 294 338 9,000 -218 Level Miami Center
Sun 11:33:17 AM 25.9675 -81.0003 99° East 294 338 8,800 -800 Descending Miami Center
Sun 11:33:44 AM 25.9747 -80.9589 79° East 294 338 8,200 -1,475 Descending Miami Center
Sun 11:34:18 AM 25.9742 -80.9103 91° East 285 328 7,300 -1,500 Descending Miami Center
Sun 11:34:44 AM 25.9794 -80.8711 81° East 284 327 6,700 -1,574 Descending Miami Center
Sun 11:35:19 AM 25.9786 -80.8250 91° East 271 312 5,700 -2,000 Descending Miami Center
Sun 11:35:44 AM 25.9836 -80.7950 79° East 268 308 4,700 -2,754 Descending Miami Center
Sun 11:36:20 AM 25.9844 -80.7558 89° East 219 252 2,900 -2,600 Descending Miami Center
Sun 11:36:44 AM 25.9875 -80.7258 84° East 243 280 2,100 -885 Descending Miami Center
Sun 11:37:21 AM 25.9761 -80.6792 105° East 252 290 2,000 -200 Descending Miami Center
Sun 11:37:44 AM 25.9642 -80.6606 126° Southeast 216 249 1,900  Descending Miami Center
Sun 11:38:22 AM 25.9378 -80.6294 133° Southeast 214 246 2,000  Climbing Miami Center
Sun 11:38:44 AM 25.9300 -80.6061 110° East 210 242 1,900  Descending Miami Center
Sun 11:39:23 AM 25.9100 -80.5733 124° Southeast 202 232 2,000 -100 Climbing Miami Center
Sun 11:39:44 AM 25.9083 -80.5500 95° East 204 235 1,800 -393 Descending Miami Center
Sun 11:40:24 AM 25.8992 -80.5083 104° East 207 238 1,600 -118 Descending Miami Center
Sun 11:41:26 AM 25.9025 -80.4483 86° East 165 190 1,600  Level Miami Center
Sun 11:42:27 AM 25.9058 -80.3975 86° East 166 191 1,600 -246 Level Miami Center
Sun 11:43:28 AM 25.9069 -80.3561 88° East 134 154 1,100 -541 Descending Miami Center
Sun 11:44:29 AM 25.9100 -80.3169 85° East 122 140 500 -590 Descending Miami Center
Sun 11:46:00 AM 25.9074 -80.2782 97° East  Level Estimated
Sun 11:53:00 AM 25.9074 -80.2782 97° East  Level Estimated

Login

Don't have an account? Register now (free) for customized features, flight alerts, and more!